createdAt,value
2019-01-08T00:00:22.405Z,7.99
2019-01-08T00:02:58.614Z,8.02
2019-01-08T00:05:29.070Z,8.04
2019-01-08T00:08:00.501Z,7.99
2019-01-08T00:10:31.180Z,7.98
2019-01-08T00:13:02.330Z,7.92
2019-01-08T00:15:32.855Z,7.94
2019-01-08T00:18:06.427Z,7.98
2019-01-08T00:20:36.748Z,8.04
2019-01-08T00:23:12.933Z,8.00
2019-01-08T00:25:43.462Z,7.94
2019-01-08T00:28:13.844Z,7.90
2019-01-08T00:30:45.214Z,7.88
2019-01-08T00:33:15.573Z,7.92
2019-01-08T00:35:51.210Z,7.97
2019-01-08T00:38:21.763Z,7.96
2019-01-08T00:40:52.366Z,7.91
2019-01-08T00:43:23.874Z,7.85
2019-01-08T00:45:55.040Z,7.81
2019-01-08T00:48:26.475Z,7.79
2019-01-08T00:50:57.042Z,7.77
2019-01-08T00:53:27.729Z,7.78
2019-01-08T00:55:57.990Z,7.81
2019-01-08T00:58:28.675Z,7.84
2019-01-08T01:00:59.347Z,7.83
2019-01-08T01:03:29.801Z,7.81
2019-01-08T01:06:00.200Z,7.82
2019-01-08T01:08:31.137Z,7.82
2019-01-08T01:11:02.079Z,7.78
2019-01-08T01:13:32.380Z,7.75
2019-01-08T01:16:04.009Z,7.81
2019-01-08T01:18:34.666Z,7.83
2019-01-08T01:21:05.484Z,7.77
2019-01-08T01:23:38.205Z,7.72
2019-01-08T01:26:08.760Z,7.73
2019-01-08T01:28:39.571Z,7.77
2019-01-08T01:31:10.590Z,7.69
2019-01-08T01:33:41.624Z,7.69
2019-01-08T01:36:12.598Z,7.71
2019-01-08T01:38:43.073Z,7.66
2019-01-08T01:41:14.581Z,7.58
2019-01-08T01:43:45.208Z,7.49
2019-01-08T01:46:15.792Z,7.48
2019-01-08T01:48:47.549Z,7.44
2019-01-08T01:51:19.125Z,7.45
2019-01-08T01:53:49.633Z,7.44
2019-01-08T01:56:20.208Z,7.41
2019-01-08T01:58:50.861Z,7.41
2019-01-08T02:01:21.244Z,7.34
2019-01-08T02:03:51.533Z,7.26
2019-01-08T02:06:23.169Z,7.20
2019-01-08T02:08:53.447Z,7.21
2019-01-08T02:11:24.059Z,7.24
2019-01-08T02:13:54.401Z,7.20
2019-01-08T02:16:27.374Z,7.18
2019-01-08T02:18:57.690Z,7.23
2019-01-08T02:21:28.017Z,7.29
2019-01-08T02:24:00.333Z,7.33
2019-01-08T02:26:30.692Z,7.31
2019-01-08T02:29:01.044Z,7.29
2019-01-08T02:31:31.292Z,7.31
2019-01-08T02:34:01.818Z,7.31
2019-01-08T02:36:32.149Z,7.31
2019-01-08T02:39:02.494Z,7.30
2019-01-08T02:41:32.866Z,7.31
2019-01-08T02:44:03.402Z,7.27
2019-01-08T02:46:33.832Z,7.13
2019-01-08T02:49:04.792Z,7.02
2019-01-08T02:51:35.180Z,6.87
2019-01-08T02:54:05.527Z,6.81
2019-01-08T02:56:35.784Z,6.74
2019-01-08T02:59:06.063Z,6.72
2019-01-08T03:01:36.312Z,6.69
2019-01-08T03:04:06.615Z,6.66
2019-01-08T03:06:37.390Z,6.70
2019-01-08T03:09:08.703Z,6.71
2019-01-08T03:11:41.012Z,6.70
2019-01-08T03:14:11.505Z,6.66
2019-01-08T03:16:41.903Z,6.61
2019-01-08T03:19:13.486Z,6.66
2019-01-08T03:21:44.216Z,6.67
2019-01-08T03:24:14.626Z,6.65
2019-01-08T03:26:45.225Z,6.62
2019-01-08T03:29:15.815Z,6.60
2019-01-08T03:31:46.171Z,6.61
2019-01-08T03:34:16.512Z,6.59
2019-01-08T03:36:47.126Z,6.60
2019-01-08T03:39:19.629Z,6.61
2019-01-08T03:41:50.070Z,6.61
2019-01-08T03:44:20.589Z,6.67
2019-01-08T03:46:51.162Z,6.71
2019-01-08T03:49:21.480Z,6.67
2019-01-08T03:51:51.843Z,6.70
2019-01-08T03:54:22.122Z,6.67
2019-01-08T03:56:52.422Z,6.65
2019-01-08T03:59:22.758Z,6.61
2019-01-08T04:01:53.105Z,6.57
2019-01-08T04:04:23.570Z,6.53
2019-01-08T04:06:54.070Z,6.51
2019-01-08T04:09:24.365Z,6.53
2019-01-08T04:11:54.655Z,6.47
2019-01-08T04:14:24.967Z,6.45
2019-01-08T04:16:55.133Z,6.43
2019-01-08T04:19:25.559Z,6.42
2019-01-08T04:21:55.931Z,6.43
2019-01-08T04:24:26.211Z,6.47
2019-01-08T04:26:56.743Z,6.48
2019-01-08T04:29:27.020Z,6.48
2019-01-08T04:31:57.344Z,6.48
2019-01-08T04:34:27.672Z,6.47
2019-01-08T04:36:58.495Z,6.48
2019-01-08T04:39:29.772Z,6.51
2019-01-08T04:42:00.008Z,6.59
2019-01-08T04:44:30.573Z,6.63
2019-01-08T04:47:00.956Z,6.62
2019-01-08T04:49:31.162Z,6.62
2019-01-08T04:52:01.507Z,6.65
2019-01-08T04:54:32.848Z,6.64
2019-01-08T04:57:03.261Z,6.63
2019-01-08T04:59:33.644Z,6.68
2019-01-08T05:02:04.235Z,6.67
2019-01-08T05:04:36.494Z,6.67
2019-01-08T05:07:06.828Z,6.69
2019-01-08T05:09:37.195Z,6.66
2019-01-08T05:12:07.664Z,6.65
2019-01-08T05:14:38.386Z,6.63
2019-01-08T05:17:08.735Z,6.60
2019-01-08T05:19:39.009Z,6.58
2019-01-08T05:22:09.382Z,6.56
2019-01-08T05:24:40.015Z,6.56
2019-01-08T05:27:10.352Z,6.57
2019-01-08T05:29:40.729Z,6.60
2019-01-08T05:32:11.753Z,6.62
2019-01-08T05:34:42.154Z,6.63
2019-01-08T05:37:12.839Z,6.65
2019-01-08T05:39:43.290Z,6.69
2019-01-08T05:42:13.903Z,6.72
2019-01-08T05:44:44.370Z,6.74
2019-01-08T05:47:16.449Z,6.75
2019-01-08T05:49:47.447Z,6.79
2019-01-08T05:52:18.623Z,6.81
2019-01-08T05:54:49.243Z,6.91
2019-01-08T05:57:19.874Z,6.95
2019-01-08T05:59:50.376Z,6.91
2019-01-08T06:02:21.087Z,6.93
2019-01-08T06:04:51.768Z,6.93
2019-01-08T06:07:22.181Z,6.89
2019-01-08T06:09:52.715Z,6.90
2019-01-08T06:12:23.033Z,6.92
2019-01-08T06:14:53.618Z,7.00
2019-01-08T06:17:23.888Z,6.99
2019-01-08T06:19:55.211Z,6.97
2019-01-08T06:22:25.506Z,6.98
2019-01-08T06:24:56.069Z,6.94
2019-01-08T06:27:26.309Z,6.94
2019-01-08T06:29:56.842Z,6.89
2019-01-08T06:32:27.105Z,6.90
2019-01-08T06:34:57.434Z,6.86
2019-01-08T06:37:27.763Z,6.86
2019-01-08T06:39:57.976Z,6.84
2019-01-08T06:42:28.494Z,6.85
2019-01-08T06:44:58.940Z,6.83
2019-01-08T06:47:30.278Z,6.90
2019-01-08T06:50:02.968Z,6.92
2019-01-08T06:52:33.954Z,6.94
2019-01-08T06:55:04.376Z,6.94
2019-01-08T06:57:37.046Z,6.94
2019-01-08T07:00:08.854Z,6.92
2019-01-08T07:02:40.329Z,6.91
2019-01-08T07:05:10.647Z,6.91
2019-01-08T07:07:41.031Z,6.93
2019-01-08T07:10:11.335Z,6.93
2019-01-08T07:12:43.096Z,6.98
2019-01-08T07:15:14.507Z,6.99
2019-01-08T07:17:44.727Z,7.05
2019-01-08T07:20:15.045Z,7.07
2019-01-08T07:22:45.307Z,7.04
2019-01-08T07:25:15.902Z,7.02
2019-01-08T07:27:46.090Z,7.10
2019-01-08T07:30:16.323Z,7.10
2019-01-08T07:32:47.197Z,7.09
2019-01-08T07:35:17.520Z,7.08
2019-01-08T07:37:47.850Z,7.14
2019-01-08T07:40:18.124Z,7.18
2019-01-08T07:42:48.369Z,7.14
2019-01-08T07:45:18.647Z,7.12
2019-01-08T07:47:48.852Z,7.12
2019-01-08T07:50:19.578Z,7.16
2019-01-08T07:52:49.839Z,7.16
2019-01-08T07:55:20.073Z,7.16
2019-01-08T07:57:50.325Z,7.14
2019-01-08T08:00:20.915Z,7.19
2019-01-08T08:02:51.442Z,7.16
2019-01-08T08:05:22.194Z,7.12
2019-01-08T08:07:54.445Z,7.07
2019-01-08T08:10:24.614Z,7.07
2019-01-08T08:12:54.990Z,7.05
2019-01-08T08:15:25.371Z,7.07
2019-01-08T08:17:55.741Z,7.08
2019-01-08T08:20:26.560Z,7.09
2019-01-08T08:22:56.947Z,7.13
2019-01-08T08:25:27.534Z,7.16
2019-01-08T08:27:57.829Z,7.12
2019-01-08T08:30:28.227Z,7.07
2019-01-08T08:32:58.503Z,7.08
2019-01-08T08:35:28.897Z,7.12
2019-01-08T08:37:59.258Z,7.18
2019-01-08T08:40:29.417Z,7.20
2019-01-08T08:42:59.973Z,7.16
2019-01-08T08:45:30.345Z,7.24
2019-01-08T08:48:00.669Z,7.19
2019-01-08T08:50:32.989Z,7.16
2019-01-08T08:53:03.537Z,7.15
2019-01-08T08:55:34.576Z,7.15
2019-01-08T08:58:05.932Z,7.15
2019-01-08T09:00:36.308Z,7.12
2019-01-08T09:03:06.555Z,7.08
2019-01-08T09:05:36.937Z,6.98
2019-01-08T09:08:07.228Z,6.98
2019-01-08T09:10:37.732Z,6.97
2019-01-08T09:13:08.009Z,6.99
2019-01-08T09:15:38.486Z,7.00
2019-01-08T09:18:08.803Z,6.97
2019-01-08T09:20:39.153Z,6.99
2019-01-08T09:23:09.568Z,7.05
2019-01-08T09:25:39.792Z,7.08
2019-01-08T09:28:10.543Z,7.03
2019-01-08T09:30:40.970Z,6.93
2019-01-08T09:33:11.494Z,6.90
2019-01-08T09:35:45.194Z,6.95
2019-01-08T09:38:15.459Z,6.97
2019-01-08T09:40:45.720Z,6.95
2019-01-08T09:43:15.883Z,6.91
2019-01-08T09:45:46.605Z,6.94
2019-01-08T09:48:16.813Z,6.91
2019-01-08T09:50:47.198Z,6.90
2019-01-08T09:53:17.751Z,6.82
2019-01-08T09:55:48.032Z,6.79
2019-01-08T09:58:18.347Z,6.70
2019-01-08T10:00:48.653Z,6.72
2019-01-08T10:03:18.970Z,6.73
2019-01-08T10:05:49.318Z,6.70
2019-01-08T10:08:19.720Z,6.71
2019-01-08T10:10:49.982Z,6.71
2019-01-08T10:13:20.206Z,6.71
2019-01-08T10:15:50.634Z,6.74
2019-01-08T10:18:20.854Z,6.77
2019-01-08T10:20:51.299Z,6.80
2019-01-08T10:23:21.792Z,6.78
2019-01-08T10:25:52.399Z,6.82
2019-01-08T10:28:23.199Z,6.83
2019-01-08T10:30:53.837Z,6.80
2019-01-08T10:33:24.119Z,6.80
2019-01-08T10:35:54.445Z,6.90
2019-01-08T10:38:25.145Z,6.92
2019-01-08T10:40:55.591Z,6.98
2019-01-08T10:43:25.891Z,7.06
2019-01-08T10:45:56.450Z,7.06
2019-01-08T10:48:26.676Z,7.07
2019-01-08T10:50:57.497Z,7.07
2019-01-08T10:53:27.972Z,7.18
2019-01-08T10:55:58.241Z,7.22
2019-01-08T10:58:28.595Z,7.23
2019-01-08T11:00:58.959Z,7.23
2019-01-08T11:03:29.196Z,7.24
2019-01-08T11:05:59.821Z,7.31
2019-01-08T11:08:30.369Z,7.37
2019-01-08T11:11:01.940Z,7.33
2019-01-08T11:13:32.196Z,7.31
2019-01-08T11:16:02.544Z,7.32
2019-01-08T11:18:36.545Z,7.33
2019-01-08T11:21:06.833Z,7.42
2019-01-08T11:23:37.631Z,7.55
2019-01-08T11:26:07.962Z,7.63
2019-01-08T11:28:38.473Z,7.57
2019-01-08T11:31:09.155Z,7.49
2019-01-08T11:33:39.884Z,7.45
2019-01-08T11:36:10.104Z,7.51
2019-01-08T11:38:41.664Z,7.44
2019-01-08T11:41:12.024Z,7.36
2019-01-08T11:43:42.370Z,7.37
2019-01-08T11:46:17.130Z,7.38
2019-01-08T11:48:48.400Z,7.40
2019-01-08T11:51:19.923Z,7.32
2019-01-08T11:53:50.237Z,7.19
2019-01-08T11:56:24.887Z,7.24
2019-01-08T11:58:55.216Z,7.19
2019-01-08T12:01:25.524Z,7.14
2019-01-08T12:03:56.061Z,7.16
2019-01-08T12:06:28.535Z,7.18
2019-01-08T12:08:58.833Z,7.19
2019-01-08T12:11:29.371Z,7.22
2019-01-08T12:13:59.926Z,7.08
2019-01-08T12:16:31.245Z,6.96
2019-01-08T12:19:01.504Z,6.84
2019-01-08T12:21:31.899Z,6.83
2019-01-08T12:24:02.324Z,6.69
2019-01-08T12:26:32.718Z,6.73
2019-01-08T12:29:02.992Z,6.73
2019-01-08T12:31:33.234Z,6.68
2019-01-08T12:34:03.864Z,6.58
2019-01-08T12:36:34.223Z,6.48
2019-01-08T12:39:06.901Z,6.47
2019-01-08T12:41:37.206Z,6.45
2019-01-08T12:44:07.441Z,6.35
2019-01-08T12:46:37.838Z,6.30
2019-01-08T12:49:08.258Z,6.38
2019-01-08T12:51:38.856Z,6.33
2019-01-08T12:54:10.148Z,6.35
2019-01-08T12:56:40.545Z,6.29
2019-01-08T12:59:10.859Z,6.19
2019-01-08T13:01:41.218Z,6.29
2019-01-08T13:04:11.916Z,6.37
2019-01-08T13:06:44.507Z,6.40
2019-01-08T13:09:14.705Z,6.18
2019-01-08T13:11:44.889Z,5.93
2019-01-08T13:14:15.497Z,5.77
2019-01-08T13:16:45.746Z,5.85
2019-01-08T13:19:15.980Z,6.00
2019-01-08T13:21:46.244Z,6.03
2019-01-08T13:24:16.466Z,6.06
2019-01-08T13:26:46.817Z,6.13
2019-01-08T13:29:17.058Z,6.14
2019-01-08T13:31:47.465Z,6.02
2019-01-08T13:34:18.095Z,6.05
2019-01-08T13:36:48.643Z,5.99
2019-01-08T13:39:18.911Z,5.84
2019-01-08T13:41:49.579Z,5.84
2019-01-08T13:44:19.969Z,5.86
2019-01-08T13:46:50.232Z,5.90
2019-01-08T13:49:20.957Z,5.78
2019-01-08T13:51:51.610Z,5.88
2019-01-08T13:54:22.306Z,5.85
2019-01-08T13:56:53.829Z,5.69
2019-01-08T13:59:24.078Z,5.68
2019-01-08T14:01:54.364Z,5.71
2019-01-08T14:04:24.766Z,5.67
2019-01-08T14:06:55.078Z,5.63
2019-01-08T14:09:25.446Z,5.70
2019-01-08T14:11:57.974Z,5.66
2019-01-08T14:14:28.277Z,5.69
2019-01-08T14:16:58.539Z,5.80
2019-01-08T14:19:29.135Z,5.80
2019-01-08T14:21:59.301Z,5.83
2019-01-08T14:24:29.543Z,5.75
2019-01-08T14:27:00.380Z,5.66
2019-01-08T14:29:30.877Z,5.67
2019-01-08T14:32:01.315Z,5.73
2019-01-08T14:34:31.697Z,5.70
2019-01-08T14:37:02.014Z,5.67
2019-01-08T14:39:32.496Z,5.69
2019-01-08T14:42:03.003Z,5.82
2019-01-08T14:44:33.351Z,5.90
2019-01-08T14:47:03.966Z,5.91
2019-01-08T14:49:34.409Z,5.77
2019-01-08T14:52:04.634Z,5.89
2019-01-08T14:54:34.978Z,5.90
2019-01-08T14:57:05.252Z,5.79
2019-01-08T14:59:35.502Z,5.68
2019-01-08T15:02:06.363Z,5.69
2019-01-08T15:04:36.720Z,5.58
2019-01-08T15:07:07.015Z,5.61
2019-01-08T15:09:37.336Z,5.57
2019-01-08T15:12:08.076Z,5.59
2019-01-08T15:14:38.715Z,5.49
2019-01-08T15:17:09.313Z,5.55
2019-01-08T15:19:39.690Z,5.53
2019-01-08T15:22:10.270Z,5.52
2019-01-08T15:24:40.591Z,5.46
2019-01-08T15:27:11.643Z,5.45
2019-01-08T15:29:41.923Z,5.56
2019-01-08T15:32:12.282Z,5.53
2019-01-08T15:34:43.733Z,5.45
2019-01-08T15:37:14.230Z,5.31
2019-01-08T15:39:44.489Z,5.23
2019-01-08T15:42:15.146Z,5.15
2019-01-08T15:44:45.400Z,5.13
2019-01-08T15:47:15.922Z,5.20
2019-01-08T15:49:46.896Z,5.25
2019-01-08T15:52:17.144Z,5.27
2019-01-08T15:54:47.391Z,5.17
2019-01-08T15:57:17.785Z,5.25
2019-01-08T15:59:48.239Z,5.28
2019-01-08T16:02:18.523Z,5.21
2019-01-08T16:04:50.000Z,5.13
2019-01-08T16:07:20.304Z,5.05
2019-01-08T16:09:50.594Z,5.16
2019-01-08T16:12:20.813Z,5.10
2019-01-08T16:14:51.198Z,5.01
2019-01-08T16:17:21.625Z,5.00
2019-01-08T16:19:51.996Z,4.99
2019-01-08T16:22:22.522Z,4.92
2019-01-08T16:24:52.747Z,4.98
2019-01-08T16:27:23.189Z,4.99
2019-01-08T16:29:53.557Z,5.04
2019-01-08T16:32:24.240Z,5.02
2019-01-08T16:34:55.694Z,4.95
2019-01-08T16:37:27.071Z,5.01
2019-01-08T16:39:57.434Z,5.04
2019-01-08T16:42:27.745Z,5.07
2019-01-08T16:44:58.371Z,4.99
2019-01-08T16:47:28.649Z,5.02
2019-01-08T16:49:59.022Z,5.01
2019-01-08T16:52:29.369Z,5.00
2019-01-08T16:55:00.136Z,4.89
2019-01-08T16:57:31.451Z,4.88
2019-01-08T17:00:01.764Z,4.93
2019-01-08T17:02:33.006Z,4.99
2019-01-08T17:05:03.444Z,4.89
2019-01-08T17:07:33.817Z,4.82
2019-01-08T17:10:04.131Z,4.75
2019-01-08T17:12:34.376Z,4.81
2019-01-08T17:15:05.753Z,4.80
2019-01-08T17:17:35.981Z,4.79
2019-01-08T17:20:07.625Z,4.70
2019-01-08T17:22:38.006Z,4.73
2019-01-08T17:25:08.438Z,4.73
2019-01-08T17:27:38.698Z,4.70
2019-01-08T17:30:10.841Z,4.72
2019-01-08T17:32:41.234Z,4.60
2019-01-08T17:35:11.682Z,4.69
2019-01-08T17:37:41.968Z,4.62
2019-01-08T17:40:18.016Z,4.62
2019-01-08T17:42:48.728Z,4.73
2019-01-08T17:45:19.300Z,4.79
2019-01-08T17:47:49.593Z,4.63
2019-01-08T17:50:20.018Z,4.48
2019-01-08T17:52:52.426Z,4.36
2019-01-08T17:55:26.842Z,4.20
2019-01-08T17:58:30.865Z,4.14
2019-01-08T18:01:03.602Z,4.08
2019-01-08T18:03:42.348Z,3.91
2019-01-08T18:06:08.076Z,3.84
2019-01-08T18:08:38.432Z,3.83
2019-01-08T18:11:09.016Z,3.85
2019-01-08T18:13:40.563Z,3.86
2019-01-08T18:16:11.286Z,3.90
2019-01-08T18:18:41.491Z,3.93
2019-01-08T18:21:12.757Z,3.91
2019-01-08T18:23:43.213Z,3.85
2019-01-08T18:26:13.583Z,3.90
2019-01-08T18:28:44.071Z,3.85
2019-01-08T18:31:14.271Z,3.85
2019-01-08T18:33:51.488Z,3.84
2019-01-08T18:36:17.824Z,3.92
2019-01-08T18:38:48.072Z,3.95
2019-01-08T18:41:18.645Z,3.96
2019-01-08T18:43:49.060Z,3.96
2019-01-08T18:46:19.761Z,3.98
2019-01-08T18:48:51.788Z,3.99
2019-01-08T18:51:22.079Z,4.02
2019-01-08T18:53:54.068Z,4.05
2019-01-08T18:56:24.338Z,4.09
2019-01-08T18:58:58.172Z,4.08
2019-01-08T19:01:35.669Z,4.12
2019-01-08T19:04:15.238Z,4.13
2019-01-08T19:06:45.544Z,4.11
2019-01-08T19:09:27.753Z,4.08
2019-01-08T19:11:58.210Z,4.08
2019-01-08T19:14:37.109Z,4.10
2019-01-08T19:17:10.222Z,4.14
2019-01-08T19:19:43.951Z,4.08
2019-01-08T19:22:16.039Z,4.10
2019-01-08T19:24:46.463Z,4.12
2019-01-08T19:27:17.078Z,4.12
2019-01-08T19:29:48.106Z,4.07
2019-01-08T19:32:18.491Z,4.12
2019-01-08T19:34:48.778Z,4.17
2019-01-08T19:37:19.792Z,4.12
2019-01-08T19:39:50.177Z,4.08
2019-01-08T19:42:20.506Z,4.09
2019-01-08T19:44:50.789Z,4.07
2019-01-08T19:47:21.802Z,4.00
2019-01-08T19:49:52.597Z,4.01
2019-01-08T19:52:22.927Z,3.99
2019-01-08T19:54:53.399Z,4.01
2019-01-08T19:57:23.747Z,4.05
2019-01-08T19:59:54.335Z,4.01
2019-01-08T20:02:26.483Z,4.05
2019-01-08T20:04:57.137Z,4.07
2019-01-08T20:07:28.059Z,4.05
2019-01-08T20:09:58.339Z,4.05
2019-01-08T20:12:28.730Z,4.11
2019-01-08T20:14:58.987Z,4.17
2019-01-08T20:17:30.986Z,4.19
2019-01-08T20:20:01.485Z,4.18
2019-01-08T20:22:31.806Z,4.07
2019-01-08T20:25:02.261Z,4.03
2019-01-08T20:27:32.741Z,4.03
2019-01-08T20:30:03.455Z,4.02
2019-01-08T20:32:34.872Z,4.01
2019-01-08T20:35:05.981Z,3.96
2019-01-08T20:37:37.397Z,3.96
2019-01-08T20:40:10.049Z,3.99
2019-01-08T20:42:41.533Z,4.02
2019-01-08T20:45:14.155Z,4.08
2019-01-08T20:47:44.395Z,4.02
2019-01-08T20:50:16.680Z,4.01
2019-01-08T20:52:55.583Z,4.08
2019-01-08T20:55:26.205Z,4.07
2019-01-08T20:57:58.376Z,4.05
2019-01-08T21:00:28.910Z,4.02
2019-01-08T21:02:59.454Z,4.01
2019-01-08T21:05:30.293Z,4.05
2019-01-08T21:08:02.708Z,4.09
2019-01-08T21:10:35.251Z,4.08
2019-01-08T21:13:06.203Z,4.05
2019-01-08T21:15:36.606Z,4.08
2019-01-08T21:18:07.316Z,4.09
2019-01-08T21:20:37.817Z,4.13
2019-01-08T21:23:09.845Z,4.17
2019-01-08T21:25:42.234Z,4.04
2019-01-08T21:28:13.806Z,4.07
2019-01-08T21:30:44.543Z,4.05
2019-01-08T21:33:14.795Z,4.04
2019-01-08T21:35:48.273Z,3.96
2019-01-08T21:38:18.997Z,3.93
2019-01-08T21:40:51.509Z,3.93
2019-01-08T21:43:22.779Z,3.98
2019-01-08T21:45:52.997Z,3.97
2019-01-08T21:48:23.486Z,3.92
2019-01-08T21:50:53.805Z,3.94
2019-01-08T21:53:24.142Z,3.96
2019-01-08T21:55:54.524Z,4.02
2019-01-08T21:58:24.783Z,3.98
2019-01-08T22:00:55.131Z,4.00
2019-01-08T22:03:26.486Z,4.08
2019-01-08T22:05:56.905Z,4.04
2019-01-08T22:08:27.472Z,4.02
2019-01-08T22:10:57.772Z,4.04
2019-01-08T22:13:29.577Z,4.02
2019-01-08T22:16:01.296Z,4.09
2019-01-08T22:18:31.692Z,4.15
2019-01-08T22:21:02.195Z,4.12
2019-01-08T22:23:33.397Z,4.16
2019-01-08T22:26:03.808Z,4.23
2019-01-08T22:28:34.119Z,4.20
2019-01-08T22:31:04.398Z,4.21
2019-01-08T22:33:35.833Z,4.25
2019-01-08T22:36:06.028Z,4.18
2019-01-08T22:38:36.334Z,4.20
2019-01-08T22:41:07.537Z,4.14
2019-01-08T22:43:37.788Z,4.21
2019-01-08T22:46:08.155Z,4.20
2019-01-08T22:48:38.496Z,3.99
2019-01-08T22:51:08.968Z,3.86
2019-01-08T22:53:39.469Z,3.86
2019-01-08T22:56:10.159Z,3.96
2019-01-08T22:58:40.393Z,4.05
2019-01-08T23:01:17.222Z,4.07
2019-01-08T23:03:47.844Z,4.03
2019-01-08T23:06:18.397Z,4.03
2019-01-08T23:08:49.023Z,4.08
2019-01-08T23:11:19.762Z,4.15
2019-01-08T23:13:50.137Z,4.19
2019-01-08T23:16:20.515Z,4.21
2019-01-08T23:18:50.835Z,4.13
2019-01-08T23:21:21.045Z,4.10
2019-01-08T23:23:51.254Z,4.05
2019-01-08T23:26:21.809Z,4.15
2019-01-08T23:28:52.164Z,4.16
2019-01-08T23:31:22.565Z,4.05
2019-01-08T23:33:54.138Z,4.00
2019-01-08T23:36:24.515Z,4.01
2019-01-08T23:38:55.084Z,4.08
2019-01-08T23:41:25.797Z,4.07
2019-01-08T23:43:56.075Z,4.05
2019-01-08T23:46:26.327Z,4.03
2019-01-08T23:48:56.790Z,4.08
2019-01-08T23:51:27.075Z,4.09
2019-01-08T23:53:57.911Z,4.05
2019-01-08T23:56:29.053Z,4.01
2019-01-08T23:58:59.446Z,4.04
